sensor_id;sensor_type;location;lat;lon;timestamp;P1;durP1;ratioP1;P2;durP2;ratioP2
10904;SDS011;5505;51.450;9.254;2023-11-21T00:00:28;5.00;;;3.00;;
10904;SDS011;5505;51.450;9.254;2023-11-21T00:03:14;5.20;;;3.27;;
10904;SDS011;5505;51.450;9.254;2023-11-21T00:06:01;3.97;;;2.97;;
10904;SDS011;5505;51.450;9.254;2023-11-21T00:08:48;6.97;;;2.97;;
10904;SDS011;5505;51.450;9.254;2023-11-21T00:11:35;2.70;;;2.30;;
10904;SDS011;5505;51.450;9.254;2023-11-21T00:14:23;7.47;;;4.23;;
10904;SDS011;5505;51.450;9.254;2023-11-21T00:17:11;2.80;;;1.83;;
10904;SDS011;5505;51.450;9.254;2023-11-21T00:19:57;2.63;;;2.00;;
10904;SDS011;5505;51.450;9.254;2023-11-21T00:22:44;2.93;;;1.90;;
10904;SDS011;5505;51.450;9.254;2023-11-21T00:25:31;5.37;;;1.93;;
10904;SDS011;5505;51.450;9.254;2023-11-21T00:28:18;3.50;;;2.17;;
10904;SDS011;5505;51.450;9.254;2023-11-21T00:31:05;3.10;;;2.10;;
10904;SDS011;5505;51.450;9.254;2023-11-21T00:33:53;3.37;;;2.23;;
10904;SDS011;5505;51.450;9.254;2023-11-21T00:36:40;4.07;;;2.23;;
10904;SDS011;5505;51.450;9.254;2023-11-21T00:39:27;2.73;;;1.67;;
10904;SDS011;5505;51.450;9.254;2023-11-21T00:42:14;5.07;;;1.87;;
10904;SDS011;5505;51.450;9.254;2023-11-21T00:45:01;2.23;;;1.67;;
10904;SDS011;5505;51.450;9.254;2023-11-21T00:47:48;2.70;;;2.00;;
10904;SDS011;5505;51.450;9.254;2023-11-21T00:50:36;2.20;;;1.90;;
10904;SDS011;5505;51.450;9.254;2023-11-21T00:53:23;4.30;;;1.80;;
10904;SDS011;5505;51.450;9.254;2023-11-21T00:56:10;3.20;;;1.83;;
10904;SDS011;5505;51.450;9.254;2023-11-21T00:58:57;3.37;;;1.80;;
10904;SDS011;5505;51.450;9.254;2023-11-21T01:01:43;3.13;;;1.60;;
10904;SDS011;5505;51.450;9.254;2023-11-21T01:04:30;3.47;;;2.35;;
10904;SDS011;5505;51.450;9.254;2023-11-21T01:07:19;6.90;;;2.00;;
10904;SDS011;5505;51.450;9.254;2023-11-21T01:10:06;2.70;;;1.83;;
10904;SDS011;5505;51.450;9.254;2023-11-21T01:12:54;5.07;;;2.37;;
10904;SDS011;5505;51.450;9.254;2023-11-21T01:15:42;3.63;;;2.07;;
10904;SDS011;5505;51.450;9.254;2023-11-21T01:18:29;3.73;;;2.20;;
10904;SDS011;5505;51.450;9.254;2023-11-21T01:21:16;4.17;;;2.60;;
10904;SDS011;5505;51.450;9.254;2023-11-21T01:24:05;7.50;;;3.50;;
10904;SDS011;5505;51.450;9.254;2023-11-21T01:26:52;3.73;;;2.13;;
10904;SDS011;5505;51.450;9.254;2023-11-21T01:29:39;5.63;;;2.40;;
10904;SDS011;5505;51.450;9.254;2023-11-21T01:32:25;4.93;;;3.03;;
10904;SDS011;5505;51.450;9.254;2023-11-21T01:35:13;4.10;;;3.57;;
10904;SDS011;5505;51.450;9.254;2023-11-21T01:38:00;5.43;;;3.57;;
10904;SDS011;5505;51.450;9.254;2023-11-21T01:40:48;5.33;;;3.10;;
10904;SDS011;5505;51.450;9.254;2023-11-21T01:43:35;5.03;;;2.77;;
10904;SDS011;5505;51.450;9.254;2023-11-21T01:46:22;3.77;;;2.93;;
10904;SDS011;5505;51.450;9.254;2023-11-21T01:49:09;3.00;;;2.30;;
10904;SDS011;5505;51.450;9.254;2023-11-21T01:51:58;4.23;;;2.50;;
10904;SDS011;5505;51.450;9.254;2023-11-21T01:54:45;6.93;;;3.27;;
10904;SDS011;5505;51.450;9.254;2023-11-21T01:57:34;3.90;;;2.50;;
10904;SDS011;5505;51.450;9.254;2023-11-21T02:00:22;6.73;;;3.87;;
10904;SDS011;5505;51.450;9.254;2023-11-21T02:03:09;4.40;;;3.23;;
10904;SDS011;5505;51.450;9.254;2023-11-21T02:05:57;3.80;;;3.37;;
10904;SDS011;5505;51.450;9.254;2023-11-21T02:08:44;4.60;;;3.70;;
10904;SDS011;5505;51.450;9.254;2023-11-21T02:11:30;5.27;;;3.30;;
10904;SDS011;5505;51.450;9.254;2023-11-21T02:14:21;4.10;;;3.27;;
10904;SDS011;5505;51.450;9.254;2023-11-21T02:17:08;4.17;;;3.53;;
10904;SDS011;5505;51.450;9.254;2023-11-21T02:19:54;5.60;;;3.20;;
10904;SDS011;5505;51.450;9.254;2023-11-21T02:22:41;5.07;;;3.17;;
10904;SDS011;5505;51.450;9.254;2023-11-21T02:25:30;3.33;;;2.77;;
10904;SDS011;5505;51.450;9.254;2023-11-21T02:28:18;3.73;;;2.70;;
10904;SDS011;5505;51.450;9.254;2023-11-21T02:31:10;4.87;;;2.63;;
10904;SDS011;5505;51.450;9.254;2023-11-21T02:33:57;3.10;;;2.40;;
10904;SDS011;5505;51.450;9.254;2023-11-21T02:36:44;2.20;;;2.00;;
10904;SDS011;5505;51.450;9.254;2023-11-21T02:39:31;2.10;;;1.90;;
10904;SDS011;5505;51.450;9.254;2023-11-21T02:42:19;4.30;;;2.20;;
10904;SDS011;5505;51.450;9.254;2023-11-21T02:45:06;2.90;;;2.50;;
10904;SDS011;5505;51.450;9.254;2023-11-21T02:47:54;7.97;;;2.93;;
10904;SDS011;5505;51.450;9.254;2023-11-21T02:50:41;9.30;;;3.27;;
10904;SDS011;5505;51.450;9.254;2023-11-21T02:53:28;3.50;;;3.20;;
10904;SDS011;5505;51.450;9.254;2023-11-21T02:56:15;3.57;;;2.37;;
10904;SDS011;5505;51.450;9.254;2023-11-21T02:59:03;3.50;;;2.40;;
10904;SDS011;5505;51.450;9.254;2023-11-21T03:01:50;4.50;;;2.37;;
10904;SDS011;5505;51.450;9.254;2023-11-21T03:04:36;2.90;;;2.40;;
10904;SDS011;5505;51.450;9.254;2023-11-21T03:07:23;5.10;;;2.53;;
10904;SDS011;5505;51.450;9.254;2023-11-21T03:10:10;4.13;;;2.60;;
10904;SDS011;5505;51.450;9.254;2023-11-21T03:12:57;5.50;;;3.40;;
10904;SDS011;5505;51.450;9.254;2023-11-21T03:15:45;4.20;;;3.17;;
10904;SDS011;5505;51.450;9.254;2023-11-21T03:18:32;4.10;;;3.30;;
10904;SDS011;5505;51.450;9.254;2023-11-21T03:21:19;5.23;;;3.10;;
10904;SDS011;5505;51.450;9.254;2023-11-21T03:24:06;4.57;;;3.67;;
10904;SDS011;5505;51.450;9.254;2023-11-21T03:26:53;4.53;;;3.50;;
10904;SDS011;5505;51.450;9.254;2023-11-21T03:29:40;5.67;;;4.10;;
10904;SDS011;5505;51.450;9.254;2023-11-21T03:32:28;7.03;;;4.60;;
10904;SDS011;5505;51.450;9.254;2023-11-21T03:35:17;7.97;;;5.13;;
10904;SDS011;5505;51.450;9.254;2023-11-21T03:38:06;7.87;;;5.03;;
10904;SDS011;5505;51.450;9.254;2023-11-21T03:40:52;9.07;;;4.97;;
10904;SDS011;5505;51.450;9.254;2023-11-21T03:43:39;7.53;;;5.20;;
10904;SDS011;5505;51.450;9.254;2023-11-21T03:46:26;8.30;;;5.17;;
10904;SDS011;5505;51.450;9.254;2023-11-21T03:49:14;6.43;;;5.03;;
10904;SDS011;5505;51.450;9.254;2023-11-21T03:52:01;8.37;;;4.73;;
10904;SDS011;5505;51.450;9.254;2023-11-21T03:54:47;8.77;;;5.17;;
10904;SDS011;5505;51.450;9.254;2023-11-21T03:57:34;8.83;;;5.27;;
10904;SDS011;5505;51.450;9.254;2023-11-21T04:00:21;7.80;;;5.27;;
10904;SDS011;5505;51.450;9.254;2023-11-21T04:03:08;7.30;;;5.20;;
10904;SDS011;5505;51.450;9.254;2023-11-21T04:05:56;9.40;;;5.17;;
10904;SDS011;5505;51.450;9.254;2023-11-21T04:08:43;6.87;;;5.30;;
10904;SDS011;5505;51.450;9.254;2023-11-21T04:11:30;8.83;;;5.80;;
10904;SDS011;5505;51.450;9.254;2023-11-21T04:14:16;8.53;;;5.80;;
10904;SDS011;5505;51.450;9.254;2023-11-21T04:17:03;8.57;;;6.13;;
10904;SDS011;5505;51.450;9.254;2023-11-21T04:19:50;7.60;;;6.00;;
10904;SDS011;5505;51.450;9.254;2023-11-21T04:22:39;9.10;;;5.97;;
10904;SDS011;5505;51.450;9.254;2023-11-21T04:25:28;7.20;;;5.60;;
10904;SDS011;5505;51.450;9.254;2023-11-21T04:28:15;8.67;;;5.77;;
10904;SDS011;5505;51.450;9.254;2023-11-21T04:31:02;6.77;;;5.40;;
10904;SDS011;5505;51.450;9.254;2023-11-21T04:33:50;6.77;;;5.10;;
10904;SDS011;5505;51.450;9.254;2023-11-21T04:36:36;6.60;;;5.23;;
10904;SDS011;5505;51.450;9.254;2023-11-21T04:39:25;8.83;;;5.70;;
10904;SDS011;5505;51.450;9.254;2023-11-21T04:42:12;9.13;;;6.87;;
10904;SDS011;5505;51.450;9.254;2023-11-21T04:44:59;10.93;;;7.10;;
10904;SDS011;5505;51.450;9.254;2023-11-21T04:47:46;8.97;;;6.73;;
10904;SDS011;5505;51.450;9.254;2023-11-21T04:50:33;12.87;;;7.70;;
10904;SDS011;5505;51.450;9.254;2023-11-21T04:53:20;11.67;;;8.13;;
10904;SDS011;5505;51.450;9.254;2023-11-21T04:56:08;10.63;;;7.80;;
10904;SDS011;5505;51.450;9.254;2023-11-21T04:58:55;13.63;;;7.53;;
10904;SDS011;5505;51.450;9.254;2023-11-21T05:01:41;11.80;;;8.53;;
10904;SDS011;5505;51.450;9.254;2023-11-21T05:04:28;12.17;;;8.63;;
10904;SDS011;5505;51.450;9.254;2023-11-21T05:07:15;17.20;;;9.03;;
10904;SDS011;5505;51.450;9.254;2023-11-21T05:10:02;18.07;;;10.23;;
10904;SDS011;5505;51.450;9.254;2023-11-21T05:12:52;15.00;;;9.60;;
10904;SDS011;5505;51.450;9.254;2023-11-21T05:15:39;10.73;;;7.80;;
10904;SDS011;5505;51.450;9.254;2023-11-21T05:18:26;7.87;;;6.83;;
10904;SDS011;5505;51.450;9.254;2023-11-21T05:21:14;9.87;;;6.93;;
10904;SDS011;5505;51.450;9.254;2023-11-21T05:24:01;10.90;;;7.47;;
10904;SDS011;5505;51.450;9.254;2023-11-21T05:26:48;10.60;;;7.17;;
10904;SDS011;5505;51.450;9.254;2023-11-21T05:29:36;12.40;;;7.93;;
10904;SDS011;5505;51.450;9.254;2023-11-21T05:32:23;11.70;;;7.93;;
10904;SDS011;5505;51.450;9.254;2023-11-21T05:35:10;11.23;;;8.03;;
10904;SDS011;5505;51.450;9.254;2023-11-21T05:38:00;12.53;;;8.33;;
10904;SDS011;5505;51.450;9.254;2023-11-21T05:40:47;14.07;;;9.13;;
10904;SDS011;5505;51.450;9.254;2023-11-21T05:43:34;20.83;;;10.87;;
10904;SDS011;5505;51.450;9.254;2023-11-21T05:46:22;17.70;;;9.80;;
10904;SDS011;5505;51.450;9.254;2023-11-21T05:49:09;19.37;;;9.80;;
10904;SDS011;5505;51.450;9.254;2023-11-21T05:51:56;15.67;;;9.43;;
10904;SDS011;5505;51.450;9.254;2023-11-21T05:54:42;21.17;;;9.47;;
10904;SDS011;5505;51.450;9.254;2023-11-21T05:57:29;21.03;;;9.13;;
10904;SDS011;5505;51.450;9.254;2023-11-21T06:00:16;15.50;;;8.70;;
10904;SDS011;5505;51.450;9.254;2023-11-21T06:03:06;17.83;;;10.17;;
10904;SDS011;5505;51.450;9.254;2023-11-21T06:05:53;17.43;;;10.13;;
10904;SDS011;5505;51.450;9.254;2023-11-21T06:08:40;17.37;;;9.07;;
10904;SDS011;5505;51.450;9.254;2023-11-21T06:11:27;17.90;;;8.73;;
10904;SDS011;5505;51.450;9.254;2023-11-21T06:14:14;19.93;;;10.03;;
10904;SDS011;5505;51.450;9.254;2023-11-21T06:17:03;15.70;;;8.73;;
10904;SDS011;5505;51.450;9.254;2023-11-21T06:19:51;17.33;;;9.13;;
10904;SDS011;5505;51.450;9.254;2023-11-21T06:22:39;21.87;;;9.23;;
10904;SDS011;5505;51.450;9.254;2023-11-21T06:25:26;22.33;;;11.00;;
10904;SDS011;5505;51.450;9.254;2023-11-21T06:28:13;20.43;;;9.37;;
10904;SDS011;5505;51.450;9.254;2023-11-21T06:31:02;19.23;;;10.10;;
10904;SDS011;5505;51.450;9.254;2023-11-21T06:33:50;18.27;;;9.70;;
10904;SDS011;5505;51.450;9.254;2023-11-21T06:36:38;24.33;;;10.53;;
10904;SDS011;5505;51.450;9.254;2023-11-21T06:39:25;22.83;;;10.40;;
10904;SDS011;5505;51.450;9.254;2023-11-21T06:42:12;21.63;;;10.67;;
10904;SDS011;5505;51.450;9.254;2023-11-21T06:45:00;22.70;;;10.60;;
10904;SDS011;5505;51.450;9.254;2023-11-21T06:47:49;22.77;;;11.00;;
10904;SDS011;5505;51.450;9.254;2023-11-21T06:50:36;18.33;;;10.83;;
10904;SDS011;5505;51.450;9.254;2023-11-21T06:53:24;8.30;;;5.50;;
10904;SDS011;5505;51.450;9.254;2023-11-21T06:56:15;6.03;;;4.97;;
10904;SDS011;5505;51.450;9.254;2023-11-21T06:59:02;8.03;;;5.20;;
10904;SDS011;5505;51.450;9.254;2023-11-21T07:01:50;10.20;;;5.20;;
10904;SDS011;5505;51.450;9.254;2023-11-21T07:04:37;11.20;;;5.30;;
10904;SDS011;5505;51.450;9.254;2023-11-21T07:07:24;11.27;;;5.77;;
10904;SDS011;5505;51.450;9.254;2023-11-21T07:10:12;8.00;;;5.70;;
10904;SDS011;5505;51.450;9.254;2023-11-21T07:12:59;8.00;;;5.40;;
10904;SDS011;5505;51.450;9.254;2023-11-21T07:15:46;9.30;;;5.50;;
10904;SDS011;5505;51.450;9.254;2023-11-21T07:18:33;8.60;;;5.87;;
10904;SDS011;5505;51.450;9.254;2023-11-21T07:21:20;8.23;;;5.67;;
10904;SDS011;5505;51.450;9.254;2023-11-21T07:24:07;10.03;;;5.67;;
10904;SDS011;5505;51.450;9.254;2023-11-21T07:26:55;12.33;;;5.43;;
10904;SDS011;5505;51.450;9.254;2023-11-21T07:29:42;8.40;;;5.73;;
10904;SDS011;5505;51.450;9.254;2023-11-21T07:32:29;8.37;;;6.07;;
10904;SDS011;5505;51.450;9.254;2023-11-21T07:35:16;10.40;;;8.57;;
10904;SDS011;5505;51.450;9.254;2023-11-21T07:38:02;13.57;;;7.10;;
10904;SDS011;5505;51.450;9.254;2023-11-21T07:40:50;15.07;;;6.43;;
10904;SDS011;5505;51.450;9.254;2023-11-21T07:43:38;9.87;;;6.60;;
10904;SDS011;5505;51.450;9.254;2023-11-21T07:46:25;9.07;;;7.00;;
10904;SDS011;5505;51.450;9.254;2023-11-21T07:49:12;11.27;;;7.30;;
10904;SDS011;5505;51.450;9.254;2023-11-21T07:52:01;10.83;;;7.10;;
10904;SDS011;5505;51.450;9.254;2023-11-21T07:54:47;11.03;;;8.03;;
10904;SDS011;5505;51.450;9.254;2023-11-21T07:57:34;13.83;;;8.97;;
10904;SDS011;5505;51.450;9.254;2023-11-21T08:00:22;14.47;;;9.50;;
10904;SDS011;5505;51.450;9.254;2023-11-21T08:03:09;14.53;;;9.70;;
10904;SDS011;5505;51.450;9.254;2023-11-21T08:05:56;14.57;;;9.07;;
10904;SDS011;5505;51.450;9.254;2023-11-21T08:08:43;25.57;;;18.73;;
10904;SDS011;5505;51.450;9.254;2023-11-21T08:11:30;27.03;;;18.13;;
10904;SDS011;5505;51.450;9.254;2023-11-21T08:14:18;24.17;;;16.87;;
10904;SDS011;5505;51.450;9.254;2023-11-21T08:17:06;27.73;;;17.93;;
10904;SDS011;5505;51.450;9.254;2023-11-21T08:19:55;27.40;;;18.20;;
10904;SDS011;5505;51.450;9.254;2023-11-21T08:22:43;21.37;;;15.23;;
10904;SDS011;5505;51.450;9.254;2023-11-21T08:25:32;26.70;;;16.70;;
10904;SDS011;5505;51.450;9.254;2023-11-21T08:28:19;21.30;;;14.93;;
10904;SDS011;5505;51.450;9.254;2023-11-21T08:31:07;30.77;;;17.97;;
10904;SDS011;5505;51.450;9.254;2023-11-21T08:33:55;19.70;;;12.70;;
10904;SDS011;5505;51.450;9.254;2023-11-21T08:36:42;16.30;;;9.97;;
10904;SDS011;5505;51.450;9.254;2023-11-21T08:39:29;14.63;;;9.47;;
10904;SDS011;5505;51.450;9.254;2023-11-21T08:42:16;15.07;;;9.20;;
10904;SDS011;5505;51.450;9.254;2023-11-21T08:45:03;14.93;;;10.30;;
10904;SDS011;5505;51.450;9.254;2023-11-21T08:47:51;16.60;;;10.03;;
10904;SDS011;5505;51.450;9.254;2023-11-21T08:50:39;16.90;;;10.60;;
10904;SDS011;5505;51.450;9.254;2023-11-21T08:53:26;18.77;;;9.80;;
10904;SDS011;5505;51.450;9.254;2023-11-21T08:56:12;17.73;;;9.67;;
10904;SDS011;5505;51.450;9.254;2023-11-21T08:59:00;18.93;;;10.07;;
10904;SDS011;5505;51.450;9.254;2023-11-21T09:01:47;21.30;;;11.17;;
10904;SDS011;5505;51.450;9.254;2023-11-21T09:04:34;24.83;;;11.37;;
10904;SDS011;5505;51.450;9.254;2023-11-21T09:07:22;20.17;;;10.80;;
10904;SDS011;5505;51.450;9.254;2023-11-21T09:10:09;22.90;;;11.93;;
10904;SDS011;5505;51.450;9.254;2023-11-21T09:12:56;24.10;;;12.37;;
10904;SDS011;5505;51.450;9.254;2023-11-21T09:15:44;23.87;;;12.43;;
10904;SDS011;5505;51.450;9.254;2023-11-21T09:18:31;24.33;;;12.57;;
10904;SDS011;5505;51.450;9.254;2023-11-21T09:21:18;22.60;;;12.70;;
10904;SDS011;5505;51.450;9.254;2023-11-21T09:24:07;24.13;;;14.07;;
10904;SDS011;5505;51.450;9.254;2023-11-21T09:26:54;25.70;;;13.43;;
10904;SDS011;5505;51.450;9.254;2023-11-21T09:29:41;25.43;;;13.20;;
10904;SDS011;5505;51.450;9.254;2023-11-21T09:32:28;24.43;;;13.47;;
10904;SDS011;5505;51.450;9.254;2023-11-21T09:35:14;27.57;;;14.40;;
10904;SDS011;5505;51.450;9.254;2023-11-21T09:38:02;27.63;;;15.17;;
10904;SDS011;5505;51.450;9.254;2023-11-21T09:40:52;32.20;;;16.97;;
10904;SDS011;5505;51.450;9.254;2023-11-21T09:43:39;33.87;;;17.83;;
10904;SDS011;5505;51.450;9.254;2023-11-21T09:46:26;26.80;;;13.07;;
10904;SDS011;5505;51.450;9.254;2023-11-21T09:49:15;24.63;;;13.73;;
10904;SDS011;5505;51.450;9.254;2023-11-21T09:52:04;32.57;;;15.60;;
10904;SDS011;5505;51.450;9.254;2023-11-21T09:54:55;32.93;;;15.40;;
10904;SDS011;5505;51.450;9.254;2023-11-21T09:57:44;33.70;;;15.60;;
10904;SDS011;5505;51.450;9.254;2023-11-21T10:00:33;35.03;;;16.50;;
10904;SDS011;5505;51.450;9.254;2023-11-21T10:03:21;32.67;;;15.63;;
10904;SDS011;5505;51.450;9.254;2023-11-21T10:06:07;29.73;;;15.93;;
10904;SDS011;5505;51.450;9.254;2023-11-21T10:08:56;31.13;;;15.73;;
10904;SDS011;5505;51.450;9.254;2023-11-21T10:11:44;28.63;;;16.23;;
10904;SDS011;5505;51.450;9.254;2023-11-21T10:14:32;35.93;;;19.17;;
10904;SDS011;5505;51.450;9.254;2023-11-21T10:17:20;33.43;;;18.83;;
10904;SDS011;5505;51.450;9.254;2023-11-21T10:20:11;31.30;;;16.17;;
10904;SDS011;5505;51.450;9.254;2023-11-21T10:22:58;26.23;;;14.83;;
10904;SDS011;5505;51.450;9.254;2023-11-21T10:25:46;24.20;;;14.67;;
10904;SDS011;5505;51.450;9.254;2023-11-21T10:28:35;28.70;;;14.87;;
10904;SDS011;5505;51.450;9.254;2023-11-21T10:31:23;29.20;;;15.43;;
10904;SDS011;5505;51.450;9.254;2023-11-21T10:34:14;27.70;;;14.67;;
10904;SDS011;5505;51.450;9.254;2023-11-21T10:37:10;26.93;;;14.47;;
10904;SDS011;5505;51.450;9.254;2023-11-21T10:39:58;26.77;;;15.37;;
10904;SDS011;5505;51.450;9.254;2023-11-21T10:42:45;26.33;;;15.20;;
10904;SDS011;5505;51.450;9.254;2023-11-21T10:45:32;24.13;;;14.10;;
10904;SDS011;5505;51.450;9.254;2023-11-21T10:48:20;27.60;;;14.23;;
10904;SDS011;5505;51.450;9.254;2023-11-21T10:51:07;26.23;;;14.63;;
10904;SDS011;5505;51.450;9.254;2023-11-21T10:53:54;24.67;;;13.07;;
10904;SDS011;5505;51.450;9.254;2023-11-21T10:56:41;21.87;;;13.10;;
10904;SDS011;5505;51.450;9.254;2023-11-21T10:59:29;21.13;;;12.50;;
10904;SDS011;5505;51.450;9.254;2023-11-21T11:02:19;20.23;;;12.43;;
10904;SDS011;5505;51.450;9.254;2023-11-21T11:05:14;21.00;;;12.00;;
10904;SDS011;5505;51.450;9.254;2023-11-21T11:08:05;18.07;;;10.50;;
10904;SDS011;5505;51.450;9.254;2023-11-21T11:10:54;20.97;;;13.17;;
10904;SDS011;5505;51.450;9.254;2023-11-21T11:13:43;19.17;;;11.23;;
10904;SDS011;5505;51.450;9.254;2023-11-21T11:16:31;17.83;;;11.33;;
10904;SDS011;5505;51.450;9.254;2023-11-21T11:19:19;16.20;;;10.13;;
10904;SDS011;5505;51.450;9.254;2023-11-21T11:22:11;11.93;;;8.33;;
10904;SDS011;5505;51.450;9.254;2023-11-21T11:25:27;12.30;;;8.50;;
10904;SDS011;5505;51.450;9.254;2023-11-21T11:28:27;15.17;;;8.97;;
10904;SDS011;5505;51.450;9.254;2023-11-21T11:31:24;13.53;;;8.13;;
10904;SDS011;5505;51.450;9.254;2023-11-21T11:34:20;14.17;;;8.30;;
10904;SDS011;5505;51.450;9.254;2023-11-21T11:37:14;13.10;;;8.00;;
10904;SDS011;5505;51.450;9.254;2023-11-21T11:40:01;9.67;;;6.87;;
10904;SDS011;5505;51.450;9.254;2023-11-21T11:42:56;10.10;;;6.53;;
10904;SDS011;5505;51.450;9.254;2023-11-21T11:45:44;9.00;;;6.67;;
10904;SDS011;5505;51.450;9.254;2023-11-21T11:48:37;10.77;;;7.17;;
10904;SDS011;5505;51.450;9.254;2023-11-21T11:51:25;9.50;;;7.20;;
10904;SDS011;5505;51.450;9.254;2023-11-21T11:54:13;11.20;;;8.20;;
10904;SDS011;5505;51.450;9.254;2023-11-21T11:57:02;11.00;;;7.67;;
10904;SDS011;5505;51.450;9.254;2023-11-21T12:00:11;11.87;;;7.83;;
10904;SDS011;5505;51.450;9.254;2023-11-21T12:03:05;10.43;;;7.40;;
10904;SDS011;5505;51.450;9.254;2023-11-21T12:05:54;12.77;;;8.13;;
10904;SDS011;5505;51.450;9.254;2023-11-21T12:08:43;12.40;;;7.37;;
10904;SDS011;5505;51.450;9.254;2023-11-21T12:11:32;13.67;;;8.30;;
10904;SDS011;5505;51.450;9.254;2023-11-21T12:14:20;11.07;;;7.90;;
10904;SDS011;5505;51.450;9.254;2023-11-21T12:17:08;11.03;;;6.90;;
10904;SDS011;5505;51.450;9.254;2023-11-21T12:20:00;11.73;;;7.10;;
10904;SDS011;5505;51.450;9.254;2023-11-21T12:22:49;9.60;;;6.03;;
10904;SDS011;5505;51.450;9.254;2023-11-21T12:25:36;7.10;;;5.83;;
10904;SDS011;5505;51.450;9.254;2023-11-21T12:28:26;6.77;;;5.37;;
10904;SDS011;5505;51.450;9.254;2023-11-21T12:31:13;8.37;;;6.30;;
10904;SDS011;5505;51.450;9.254;2023-11-21T12:34:00;7.93;;;5.87;;
10904;SDS011;5505;51.450;9.254;2023-11-21T12:36:47;9.37;;;6.77;;
10904;SDS011;5505;51.450;9.254;2023-11-21T12:39:34;8.40;;;6.40;;
10904;SDS011;5505;51.450;9.254;2023-11-21T12:42:21;9.30;;;6.20;;
10904;SDS011;5505;51.450;9.254;2023-11-21T12:45:10;7.47;;;5.80;;
10904;SDS011;5505;51.450;9.254;2023-11-21T12:48:05;8.30;;;5.90;;
10904;SDS011;5505;51.450;9.254;2023-11-21T12:50:54;8.03;;;5.63;;
10904;SDS011;5505;51.450;9.254;2023-11-21T12:53:41;6.97;;;5.50;;
10904;SDS011;5505;51.450;9.254;2023-11-21T12:56:28;7.73;;;5.43;;
10904;SDS011;5505;51.450;9.254;2023-11-21T12:59:16;6.73;;;6.00;;
10904;SDS011;5505;51.450;9.254;2023-11-21T13:02:06;7.40;;;5.73;;
10904;SDS011;5505;51.450;9.254;2023-11-21T13:04:53;6.10;;;5.50;;
10904;SDS011;5505;51.450;9.254;2023-11-21T13:07:43;7.17;;;5.40;;
10904;SDS011;5505;51.450;9.254;2023-11-21T13:10:32;7.40;;;6.17;;
10904;SDS011;5505;51.450;9.254;2023-11-21T13:13:21;19.33;;;13.03;;
10904;SDS011;5505;51.450;9.254;2023-11-21T13:16:09;7.43;;;6.30;;
10904;SDS011;5505;51.450;9.254;2023-11-21T13:18:58;6.37;;;5.40;;
10904;SDS011;5505;51.450;9.254;2023-11-21T13:21:44;6.00;;;5.40;;
10904;SDS011;5505;51.450;9.254;2023-11-21T13:24:31;5.70;;;5.20;;
10904;SDS011;5505;51.450;9.254;2023-11-21T13:27:18;5.33;;;4.83;;
10904;SDS011;5505;51.450;9.254;2023-11-21T13:30:05;5.67;;;5.17;;
10904;SDS011;5505;51.450;9.254;2023-11-21T13:32:54;5.40;;;4.90;;
10904;SDS011;5505;51.450;9.254;2023-11-21T13:35:44;4.10;;;3.70;;
10904;SDS011;5505;51.450;9.254;2023-11-21T13:38:33;4.10;;;3.70;;
10904;SDS011;5505;51.450;9.254;2023-11-21T13:41:21;6.43;;;3.77;;
10904;SDS011;5505;51.450;9.254;2023-11-21T13:44:13;3.83;;;3.43;;
10904;SDS011;5505;51.450;9.254;2023-11-21T13:47:11;3.60;;;3.30;;
10904;SDS011;5505;51.450;9.254;2023-11-21T13:49:58;4.57;;;3.40;;
10904;SDS011;5505;51.450;9.254;2023-11-21T13:52:46;4.23;;;3.67;;
10904;SDS011;5505;51.450;9.254;2023-11-21T13:55:33;4.70;;;3.97;;
10904;SDS011;5505;51.450;9.254;2023-11-21T13:58:21;4.60;;;4.20;;
10904;SDS011;5505;51.450;9.254;2023-11-21T14:01:11;5.47;;;4.90;;
10904;SDS011;5505;51.450;9.254;2023-11-21T14:04:17;5.87;;;4.77;;
10904;SDS011;5505;51.450;9.254;2023-11-21T14:07:04;5.00;;;4.50;;
10904;SDS011;5505;51.450;9.254;2023-11-21T14:10:08;5.40;;;4.47;;
10904;SDS011;5505;51.450;9.254;2023-11-21T14:12:59;7.10;;;4.70;;
10904;SDS011;5505;51.450;9.254;2023-11-21T14:15:46;5.80;;;4.77;;
10904;SDS011;5505;51.450;9.254;2023-11-21T14:18:36;5.57;;;4.97;;
10904;SDS011;5505;51.450;9.254;2023-11-21T14:21:35;6.23;;;4.80;;
10904;SDS011;5505;51.450;9.254;2023-11-21T14:24:22;7.93;;;4.60;;
10904;SDS011;5505;51.450;9.254;2023-11-21T14:27:11;5.83;;;4.77;;
10904;SDS011;5505;51.450;9.254;2023-11-21T14:29:57;6.97;;;4.70;;
10904;SDS011;5505;51.450;9.254;2023-11-21T14:32:44;7.33;;;4.60;;
10904;SDS011;5505;51.450;9.254;2023-11-21T14:35:31;5.47;;;4.70;;
10904;SDS011;5505;51.450;9.254;2023-11-21T14:38:19;6.07;;;4.43;;
10904;SDS011;5505;51.450;9.254;2023-11-21T14:41:06;6.13;;;4.50;;
10904;SDS011;5505;51.450;9.254;2023-11-21T14:43:55;5.53;;;4.77;;
10904;SDS011;5505;51.450;9.254;2023-11-21T14:46:42;4.93;;;4.43;;
10904;SDS011;5505;51.450;9.254;2023-11-21T14:49:31;4.87;;;4.37;;
10904;SDS011;5505;51.450;9.254;2023-11-21T14:52:37;6.23;;;4.70;;
10904;SDS011;5505;51.450;9.254;2023-11-21T14:55:38;5.83;;;4.83;;
10904;SDS011;5505;51.450;9.254;2023-11-21T14:58:38;5.23;;;4.37;;
10904;SDS011;5505;51.450;9.254;2023-11-21T15:01:26;5.90;;;4.50;;
10904;SDS011;5505;51.450;9.254;2023-11-21T15:04:21;5.37;;;4.50;;
10904;SDS011;5505;51.450;9.254;2023-11-21T15:07:12;5.07;;;4.20;;
10904;SDS011;5505;51.450;9.254;2023-11-21T15:09:58;5.50;;;4.10;;
10904;SDS011;5505;51.450;9.254;2023-11-21T15:12:44;6.03;;;4.10;;
10904;SDS011;5505;51.450;9.254;2023-11-21T15:15:30;4.63;;;3.97;;
10904;SDS011;5505;51.450;9.254;2023-11-21T15:18:21;5.17;;;3.80;;
10904;SDS011;5505;51.450;9.254;2023-11-21T15:21:09;6.60;;;4.17;;
10904;SDS011;5505;51.450;9.254;2023-11-21T15:23:57;5.30;;;4.10;;
10904;SDS011;5505;51.450;9.254;2023-11-21T15:26:43;5.90;;;4.10;;
10904;SDS011;5505;51.450;9.254;2023-11-21T15:29:30;4.77;;;3.90;;
10904;SDS011;5505;51.450;9.254;2023-11-21T15:32:17;4.40;;;3.73;;
10904;SDS011;5505;51.450;9.254;2023-11-21T15:35:05;5.27;;;3.90;;
10904;SDS011;5505;51.450;9.254;2023-11-21T15:37:54;4.30;;;3.70;;
10904;SDS011;5505;51.450;9.254;2023-11-21T15:40:42;4.87;;;3.90;;
10904;SDS011;5505;51.450;9.254;2023-11-21T15:43:30;4.20;;;3.80;;
10904;SDS011;5505;51.450;9.254;2023-11-21T15:46:17;6.00;;;4.30;;
10904;SDS011;5505;51.450;9.254;2023-11-21T15:49:04;6.10;;;3.83;;
10904;SDS011;5505;51.450;9.254;2023-11-21T15:51:58;4.63;;;3.77;;
10904;SDS011;5505;51.450;9.254;2023-11-21T15:54:45;4.00;;;3.60;;
10904;SDS011;5505;51.450;9.254;2023-11-21T15:57:32;6.63;;;4.00;;
10904;SDS011;5505;51.450;9.254;2023-11-21T16:00:19;5.17;;;3.90;;
10904;SDS011;5505;51.450;9.254;2023-11-21T16:03:07;4.87;;;3.83;;
10904;SDS011;5505;51.450;9.254;2023-11-21T16:05:57;4.67;;;3.60;;
10904;SDS011;5505;51.450;9.254;2023-11-21T16:08:45;4.47;;;3.70;;
10904;SDS011;5505;51.450;9.254;2023-11-21T16:11:32;7.03;;;3.50;;
10904;SDS011;5505;51.450;9.254;2023-11-21T16:14:21;4.93;;;3.67;;
10904;SDS011;5505;51.450;9.254;2023-11-21T16:17:11;4.30;;;3.90;;
10904;SDS011;5505;51.450;9.254;2023-11-21T16:19:58;4.97;;;4.00;;
10904;SDS011;5505;51.450;9.254;2023-11-21T16:22:45;4.73;;;3.60;;
10904;SDS011;5505;51.450;9.254;2023-11-21T16:25:34;6.10;;;3.60;;
10904;SDS011;5505;51.450;9.254;2023-11-21T16:28:21;4.80;;;3.43;;
10904;SDS011;5505;51.450;9.254;2023-11-21T16:31:10;6.67;;;3.43;;
10904;SDS011;5505;51.450;9.254;2023-11-21T16:33:56;4.33;;;3.80;;
10904;SDS011;5505;51.450;9.254;2023-11-21T16:36:43;3.87;;;3.43;;
10904;SDS011;5505;51.450;9.254;2023-11-21T16:39:30;3.43;;;3.10;;
10904;SDS011;5505;51.450;9.254;2023-11-21T16:42:18;4.97;;;3.67;;
10904;SDS011;5505;51.450;9.254;2023-11-21T16:45:05;4.30;;;3.40;;
10904;SDS011;5505;51.450;9.254;2023-11-21T16:47:52;4.77;;;3.63;;
10904;SDS011;5505;51.450;9.254;2023-11-21T16:50:41;4.40;;;3.57;;
10904;SDS011;5505;51.450;9.254;2023-11-21T16:53:29;4.70;;;3.60;;
10904;SDS011;5505;51.450;9.254;2023-11-21T16:56:16;5.03;;;3.57;;
10904;SDS011;5505;51.450;9.254;2023-11-21T16:59:04;4.30;;;3.63;;